sensor_id;sensor_type;location;lat;lon;timestamp;P1;durP1;ratioP1;P2;durP2;ratioP2
22034;SDS011;11181;51.002;4.356;2023-08-07T00:00:42;4.90;;;2.33;;
22034;SDS011;11181;51.002;4.356;2023-08-07T00:03:09;7.67;;;2.20;;
22034;SDS011;11181;51.002;4.356;2023-08-07T00:05:44;5.90;;;2.20;;
22034;SDS011;11181;51.002;4.356;2023-08-07T00:08:12;12.80;;;3.60;;
22034;SDS011;11181;51.002;4.356;2023-08-07T00:10:39;8.10;;;2.70;;
22034;SDS011;11181;51.002;4.356;2023-08-07T00:13:06;7.93;;;2.67;;
22034;SDS011;11181;51.002;4.356;2023-08-07T00:15:33;8.27;;;2.47;;
22034;SDS011;11181;51.002;4.356;2023-08-07T00:18:00;6.10;;;2.30;;
22034;SDS011;11181;51.002;4.356;2023-08-07T00:20:27;5.00;;;2.63;;
22034;SDS011;11181;51.002;4.356;2023-08-07T00:22:54;11.27;;;2.63;;
22034;SDS011;11181;51.002;4.356;2023-08-07T00:25:22;7.17;;;3.10;;
22034;SDS011;11181;51.002;4.356;2023-08-07T00:27:49;6.80;;;2.23;;
22034;SDS011;11181;51.002;4.356;2023-08-07T00:30:16;4.67;;;2.17;;
22034;SDS011;11181;51.002;4.356;2023-08-07T00:32:43;4.53;;;2.13;;
22034;SDS011;11181;51.002;4.356;2023-08-07T00:35:10;4.07;;;2.00;;
22034;SDS011;11181;51.002;4.356;2023-08-07T00:37:37;2.70;;;2.10;;
22034;SDS011;11181;51.002;4.356;2023-08-07T00:40:04;5.43;;;2.20;;
22034;SDS011;11181;51.002;4.356;2023-08-07T00:42:33;7.93;;;2.63;;
22034;SDS011;11181;51.002;4.356;2023-08-07T00:45:00;4.43;;;2.10;;
22034;SDS011;11181;51.002;4.356;2023-08-07T00:47:27;8.67;;;2.57;;
22034;SDS011;11181;51.002;4.356;2023-08-07T00:49:55;7.23;;;1.87;;
22034;SDS011;11181;51.002;4.356;2023-08-07T00:52:23;6.07;;;2.03;;
22034;SDS011;11181;51.002;4.356;2023-08-07T00:54:50;6.30;;;1.97;;
22034;SDS011;11181;51.002;4.356;2023-08-07T00:57:17;3.87;;;2.10;;
22034;SDS011;11181;51.002;4.356;2023-08-07T00:59:49;6.63;;;2.13;;
22034;SDS011;11181;51.002;4.356;2023-08-07T01:02:16;2.67;;;1.60;;
22034;SDS011;11181;51.002;4.356;2023-08-07T01:04:43;6.80;;;2.00;;
22034;SDS011;11181;51.002;4.356;2023-08-07T01:07:10;6.70;;;1.90;;
22034;SDS011;11181;51.002;4.356;2023-08-07T01:09:37;4.07;;;1.87;;
22034;SDS011;11181;51.002;4.356;2023-08-07T01:12:07;4.30;;;1.87;;
22034;SDS011;11181;51.002;4.356;2023-08-07T01:14:46;10.10;;;2.40;;
22034;SDS011;11181;51.002;4.356;2023-08-07T01:17:19;5.93;;;1.93;;
22034;SDS011;11181;51.002;4.356;2023-08-07T01:19:48;4.97;;;2.17;;
22034;SDS011;11181;51.002;4.356;2023-08-07T01:22:18;3.80;;;1.80;;
22034;SDS011;11181;51.002;4.356;2023-08-07T01:24:47;4.57;;;1.40;;
22034;SDS011;11181;51.002;4.356;2023-08-07T01:27:26;6.10;;;1.93;;
22034;SDS011;11181;51.002;4.356;2023-08-07T01:30:02;5.13;;;1.77;;
22034;SDS011;11181;51.002;4.356;2023-08-07T01:32:43;4.07;;;1.80;;
22034;SDS011;11181;51.002;4.356;2023-08-07T01:35:16;5.97;;;1.70;;
22034;SDS011;11181;51.002;4.356;2023-08-07T01:37:47;2.83;;;1.43;;
22034;SDS011;11181;51.002;4.356;2023-08-07T01:40:16;5.93;;;1.90;;
22034;SDS011;11181;51.002;4.356;2023-08-07T01:42:44;3.83;;;1.60;;
22034;SDS011;11181;51.002;4.356;2023-08-07T01:45:12;3.60;;;1.60;;
22034;SDS011;11181;51.002;4.356;2023-08-07T01:47:39;2.37;;;1.43;;
22034;SDS011;11181;51.002;4.356;2023-08-07T01:50:06;9.20;;;1.93;;
22034;SDS011;11181;51.002;4.356;2023-08-07T01:52:33;2.63;;;1.50;;
22034;SDS011;11181;51.002;4.356;2023-08-07T01:55:01;4.17;;;1.87;;
22034;SDS011;11181;51.002;4.356;2023-08-07T01:57:28;4.77;;;2.13;;
22034;SDS011;11181;51.002;4.356;2023-08-07T01:59:56;6.77;;;1.83;;
22034;SDS011;11181;51.002;4.356;2023-08-07T02:02:23;5.10;;;1.80;;
22034;SDS011;11181;51.002;4.356;2023-08-07T02:04:49;2.00;;;1.47;;
22034;SDS011;11181;51.002;4.356;2023-08-07T02:07:16;4.07;;;1.60;;
22034;SDS011;11181;51.002;4.356;2023-08-07T02:09:43;5.20;;;2.13;;
22034;SDS011;11181;51.002;4.356;2023-08-07T02:12:11;4.10;;;1.50;;
22034;SDS011;11181;51.002;4.356;2023-08-07T02:14:38;4.37;;;1.67;;
22034;SDS011;11181;51.002;4.356;2023-08-07T02:17:05;3.70;;;1.57;;
22034;SDS011;11181;51.002;4.356;2023-08-07T02:19:32;6.20;;;1.73;;
22034;SDS011;11181;51.002;4.356;2023-08-07T02:21:59;7.70;;;1.57;;
22034;SDS011;11181;51.002;4.356;2023-08-07T02:24:26;3.07;;;1.43;;
22034;SDS011;11181;51.002;4.356;2023-08-07T02:26:53;3.43;;;1.60;;
22034;SDS011;11181;51.002;4.356;2023-08-07T02:29:21;6.00;;;2.07;;
22034;SDS011;11181;51.002;4.356;2023-08-07T02:31:48;5.50;;;2.10;;
22034;SDS011;11181;51.002;4.356;2023-08-07T02:34:15;3.50;;;1.70;;
22034;SDS011;11181;51.002;4.356;2023-08-07T02:36:41;4.97;;;2.00;;
22034;SDS011;11181;51.002;4.356;2023-08-07T02:39:08;3.60;;;1.93;;
22034;SDS011;11181;51.002;4.356;2023-08-07T02:41:35;5.47;;;1.80;;
22034;SDS011;11181;51.002;4.356;2023-08-07T02:44:02;4.63;;;1.47;;
22034;SDS011;11181;51.002;4.356;2023-08-07T02:46:30;5.47;;;1.70;;
22034;SDS011;11181;51.002;4.356;2023-08-07T02:48:59;6.27;;;1.90;;
22034;SDS011;11181;51.002;4.356;2023-08-07T02:51:26;4.23;;;1.70;;
22034;SDS011;11181;51.002;4.356;2023-08-07T02:53:53;3.13;;;1.30;;
22034;SDS011;11181;51.002;4.356;2023-08-07T02:56:20;4.50;;;1.50;;
22034;SDS011;11181;51.002;4.356;2023-08-07T02:58:47;4.13;;;1.53;;
22034;SDS011;11181;51.002;4.356;2023-08-07T03:01:14;5.33;;;2.37;;
22034;SDS011;11181;51.002;4.356;2023-08-07T03:03:42;4.33;;;1.70;;
22034;SDS011;11181;51.002;4.356;2023-08-07T03:06:09;4.30;;;1.33;;
22034;SDS011;11181;51.002;4.356;2023-08-07T03:08:36;3.43;;;2.17;;
22034;SDS011;11181;51.002;4.356;2023-08-07T03:11:03;2.40;;;1.70;;
22034;SDS011;11181;51.002;4.356;2023-08-07T03:13:29;8.50;;;1.70;;
22034;SDS011;11181;51.002;4.356;2023-08-07T03:15:59;3.67;;;1.77;;
22034;SDS011;11181;51.002;4.356;2023-08-07T03:18:27;5.33;;;1.60;;
22034;SDS011;11181;51.002;4.356;2023-08-07T03:20:56;1.97;;;1.60;;
22034;SDS011;11181;51.002;4.356;2023-08-07T03:23:23;6.03;;;1.67;;
22034;SDS011;11181;51.002;4.356;2023-08-07T03:26:00;6.23;;;1.70;;
22034;SDS011;11181;51.002;4.356;2023-08-07T03:28:28;4.10;;;1.97;;
22034;SDS011;11181;51.002;4.356;2023-08-07T03:30:55;4.30;;;2.10;;
22034;SDS011;11181;51.002;4.356;2023-08-07T03:33:22;4.53;;;1.40;;
22034;SDS011;11181;51.002;4.356;2023-08-07T03:35:48;4.70;;;1.93;;
22034;SDS011;11181;51.002;4.356;2023-08-07T03:38:17;2.33;;;1.60;;
22034;SDS011;11181;51.002;4.356;2023-08-07T03:40:44;4.13;;;1.67;;
22034;SDS011;11181;51.002;4.356;2023-08-07T03:43:11;14.40;;;2.23;;
22034;SDS011;11181;51.002;4.356;2023-08-07T03:45:38;9.37;;;2.17;;
22034;SDS011;11181;51.002;4.356;2023-08-07T03:48:05;10.17;;;1.93;;
22034;SDS011;11181;51.002;4.356;2023-08-07T03:50:32;5.20;;;1.77;;
22034;SDS011;11181;51.002;4.356;2023-08-07T03:53:02;3.57;;;3.03;;
22034;SDS011;11181;51.002;4.356;2023-08-07T03:55:30;3.37;;;2.00;;
22034;SDS011;11181;51.002;4.356;2023-08-07T03:57:57;2.43;;;1.33;;
22034;SDS011;11181;51.002;4.356;2023-08-07T04:00:24;3.87;;;1.57;;
22034;SDS011;11181;51.002;4.356;2023-08-07T04:02:51;2.23;;;1.50;;
22034;SDS011;11181;51.002;4.356;2023-08-07T04:05:18;5.33;;;1.60;;
22034;SDS011;11181;51.002;4.356;2023-08-07T04:07:45;8.37;;;1.97;;
22034;SDS011;11181;51.002;4.356;2023-08-07T04:10:12;3.67;;;1.83;;
22034;SDS011;11181;51.002;4.356;2023-08-07T04:12:40;5.20;;;1.77;;
22034;SDS011;11181;51.002;4.356;2023-08-07T04:15:07;6.97;;;2.00;;
22034;SDS011;11181;51.002;4.356;2023-08-07T04:17:35;7.53;;;2.10;;
22034;SDS011;11181;51.002;4.356;2023-08-07T04:20:02;3.50;;;1.97;;
22034;SDS011;11181;51.002;4.356;2023-08-07T04:22:30;6.33;;;2.07;;
22034;SDS011;11181;51.002;4.356;2023-08-07T04:24:57;5.40;;;2.87;;
22034;SDS011;11181;51.002;4.356;2023-08-07T04:27:25;5.20;;;2.40;;
22034;SDS011;11181;51.002;4.356;2023-08-07T04:29:53;5.93;;;2.40;;
22034;SDS011;11181;51.002;4.356;2023-08-07T04:32:20;7.27;;;2.10;;
22034;SDS011;11181;51.002;4.356;2023-08-07T04:34:47;3.70;;;1.50;;
22034;SDS011;11181;51.002;4.356;2023-08-07T04:37:14;4.40;;;1.83;;
22034;SDS011;11181;51.002;4.356;2023-08-07T04:39:41;4.90;;;2.00;;
22034;SDS011;11181;51.002;4.356;2023-08-07T04:42:08;5.17;;;1.90;;
22034;SDS011;11181;51.002;4.356;2023-08-07T04:44:35;5.93;;;1.97;;
22034;SDS011;11181;51.002;4.356;2023-08-07T04:47:04;6.50;;;1.77;;
22034;SDS011;11181;51.002;4.356;2023-08-07T04:49:31;3.63;;;2.00;;
22034;SDS011;11181;51.002;4.356;2023-08-07T04:51:58;4.67;;;1.60;;
22034;SDS011;11181;51.002;4.356;2023-08-07T04:54:25;7.73;;;2.00;;
22034;SDS011;11181;51.002;4.356;2023-08-07T04:56:52;6.37;;;1.97;;
22034;SDS011;11181;51.002;4.356;2023-08-07T04:59:19;5.53;;;2.00;;
22034;SDS011;11181;51.002;4.356;2023-08-07T05:01:46;10.17;;;2.07;;
22034;SDS011;11181;51.002;4.356;2023-08-07T05:04:14;4.23;;;1.60;;
22034;SDS011;11181;51.002;4.356;2023-08-07T05:06:41;4.93;;;2.37;;
22034;SDS011;11181;51.002;4.356;2023-08-07T05:09:08;7.17;;;1.83;;
22034;SDS011;11181;51.002;4.356;2023-08-07T05:11:34;6.77;;;2.40;;
22034;SDS011;11181;51.002;4.356;2023-08-07T05:14:01;8.33;;;2.00;;
22034;SDS011;11181;51.002;4.356;2023-08-07T05:16:28;4.33;;;2.07;;
22034;SDS011;11181;51.002;4.356;2023-08-07T05:18:55;8.07;;;2.07;;
22034;SDS011;11181;51.002;4.356;2023-08-07T05:21:23;8.13;;;1.93;;
22034;SDS011;11181;51.002;4.356;2023-08-07T05:23:50;4.53;;;2.37;;
22034;SDS011;11181;51.002;4.356;2023-08-07T05:26:18;4.77;;;2.17;;
22034;SDS011;11181;51.002;4.356;2023-08-07T05:28:45;6.10;;;2.07;;
22034;SDS011;11181;51.002;4.356;2023-08-07T05:31:12;11.63;;;1.90;;
22034;SDS011;11181;51.002;4.356;2023-08-07T05:33:39;3.90;;;1.80;;
22034;SDS011;11181;51.002;4.356;2023-08-07T05:36:06;7.77;;;2.30;;
22034;SDS011;11181;51.002;4.356;2023-08-07T05:38:34;6.83;;;1.80;;
22034;SDS011;11181;51.002;4.356;2023-08-07T05:41:01;7.13;;;2.20;;
22034;SDS011;11181;51.002;4.356;2023-08-07T05:43:28;6.37;;;2.47;;
22034;SDS011;11181;51.002;4.356;2023-08-07T05:45:55;5.57;;;1.83;;
22034;SDS011;11181;51.002;4.356;2023-08-07T05:48:22;5.80;;;1.93;;
22034;SDS011;11181;51.002;4.356;2023-08-07T05:50:50;7.53;;;2.50;;
22034;SDS011;11181;51.002;4.356;2023-08-07T05:53:17;9.27;;;2.40;;
22034;SDS011;11181;51.002;4.356;2023-08-07T05:55:46;7.63;;;1.80;;
22034;SDS011;11181;51.002;4.356;2023-08-07T05:58:12;3.67;;;2.07;;
22034;SDS011;11181;51.002;4.356;2023-08-07T06:00:39;5.80;;;2.10;;
22034;SDS011;11181;51.002;4.356;2023-08-07T06:03:06;4.83;;;1.73;;
22034;SDS011;11181;51.002;4.356;2023-08-07T06:05:33;6.93;;;2.07;;
22034;SDS011;11181;51.002;4.356;2023-08-07T06:08:00;4.70;;;2.17;;
22034;SDS011;11181;51.002;4.356;2023-08-07T06:10:27;6.23;;;2.40;;
22034;SDS011;11181;51.002;4.356;2023-08-07T06:12:56;6.83;;;2.03;;
22034;SDS011;11181;51.002;4.356;2023-08-07T06:15:22;3.53;;;1.80;;
22034;SDS011;11181;51.002;4.356;2023-08-07T06:17:49;7.60;;;1.70;;
22034;SDS011;11181;51.002;4.356;2023-08-07T06:20:17;5.63;;;2.10;;
22034;SDS011;11181;51.002;4.356;2023-08-07T06:22:45;5.17;;;2.90;;
22034;SDS011;11181;51.002;4.356;2023-08-07T06:25:12;8.50;;;2.77;;
22034;SDS011;11181;51.002;4.356;2023-08-07T06:27:39;4.63;;;2.30;;
22034;SDS011;11181;51.002;4.356;2023-08-07T06:30:08;4.60;;;2.60;;
22034;SDS011;11181;51.002;4.356;2023-08-07T06:32:35;6.10;;;2.33;;
22034;SDS011;11181;51.002;4.356;2023-08-07T06:35:03;4.00;;;1.83;;
22034;SDS011;11181;51.002;4.356;2023-08-07T06:37:30;5.40;;;2.17;;
22034;SDS011;11181;51.002;4.356;2023-08-07T06:39:57;4.07;;;2.00;;
22034;SDS011;11181;51.002;4.356;2023-08-07T06:42:24;4.67;;;2.30;;
22034;SDS011;11181;51.002;4.356;2023-08-07T06:44:51;8.03;;;2.03;;
22034;SDS011;11181;51.002;4.356;2023-08-07T06:47:19;6.93;;;2.77;;
22034;SDS011;11181;51.002;4.356;2023-08-07T06:49:46;5.87;;;2.53;;
22034;SDS011;11181;51.002;4.356;2023-08-07T06:52:13;6.60;;;2.00;;
22034;SDS011;11181;51.002;4.356;2023-08-07T06:54:40;6.77;;;2.20;;
22034;SDS011;11181;51.002;4.356;2023-08-07T06:57:07;7.90;;;2.53;;
22034;SDS011;11181;51.002;4.356;2023-08-07T06:59:34;4.07;;;1.73;;
22034;SDS011;11181;51.002;4.356;2023-08-07T07:02:01;5.43;;;2.27;;
22034;SDS011;11181;51.002;4.356;2023-08-07T07:04:29;5.20;;;2.20;;
22034;SDS011;11181;51.002;4.356;2023-08-07T07:06:56;5.30;;;1.73;;
22034;SDS011;11181;51.002;4.356;2023-08-07T07:09:23;7.60;;;2.07;;
22034;SDS011;11181;51.002;4.356;2023-08-07T07:11:51;6.40;;;2.30;;
22034;SDS011;11181;51.002;4.356;2023-08-07T07:14:18;4.50;;;1.90;;
22034;SDS011;11181;51.002;4.356;2023-08-07T07:16:45;5.20;;;2.17;;
22034;SDS011;11181;51.002;4.356;2023-08-07T07:19:11;6.73;;;3.33;;
22034;SDS011;11181;51.002;4.356;2023-08-07T07:21:40;5.43;;;1.90;;
22034;SDS011;11181;51.002;4.356;2023-08-07T07:24:06;5.40;;;1.57;;
22034;SDS011;11181;51.002;4.356;2023-08-07T07:26:33;3.70;;;1.87;;
22034;SDS011;11181;51.002;4.356;2023-08-07T07:29:00;4.40;;;1.70;;
22034;SDS011;11181;51.002;4.356;2023-08-07T07:31:27;6.87;;;2.33;;
22034;SDS011;11181;51.002;4.356;2023-08-07T07:33:54;6.23;;;2.13;;
22034;SDS011;11181;51.002;4.356;2023-08-07T07:36:21;6.60;;;2.00;;
22034;SDS011;11181;51.002;4.356;2023-08-07T07:38:49;2.37;;;1.37;;
22034;SDS011;11181;51.002;4.356;2023-08-07T07:41:16;4.07;;;1.77;;
22034;SDS011;11181;51.002;4.356;2023-08-07T07:43:43;6.53;;;1.90;;
22034;SDS011;11181;51.002;4.356;2023-08-07T07:46:10;3.30;;;1.67;;
22034;SDS011;11181;51.002;4.356;2023-08-07T07:48:37;6.70;;;2.17;;
22034;SDS011;11181;51.002;4.356;2023-08-07T07:51:04;2.57;;;2.00;;
22034;SDS011;11181;51.002;4.356;2023-08-07T07:53:31;5.87;;;2.50;;
22034;SDS011;11181;51.002;4.356;2023-08-07T07:55:59;4.23;;;1.93;;
22034;SDS011;11181;51.002;4.356;2023-08-07T07:58:26;4.43;;;1.77;;
22034;SDS011;11181;51.002;4.356;2023-08-07T08:00:53;2.97;;;1.80;;
22034;SDS011;11181;51.002;4.356;2023-08-07T08:03:20;5.27;;;2.07;;
22034;SDS011;11181;51.002;4.356;2023-08-07T08:05:49;5.27;;;1.50;;
22034;SDS011;11181;51.002;4.356;2023-08-07T08:08:16;5.23;;;2.00;;
22034;SDS011;11181;51.002;4.356;2023-08-07T08:10:43;4.70;;;1.80;;
22034;SDS011;11181;51.002;4.356;2023-08-07T08:13:13;3.20;;;1.80;;
22034;SDS011;11181;51.002;4.356;2023-08-07T08:15:40;3.10;;;1.73;;
22034;SDS011;11181;51.002;4.356;2023-08-07T08:18:07;3.53;;;1.90;;
22034;SDS011;11181;51.002;4.356;2023-08-07T08:20:34;2.73;;;1.63;;
22034;SDS011;11181;51.002;4.356;2023-08-07T08:23:01;3.70;;;2.00;;
22034;SDS011;11181;51.002;4.356;2023-08-07T08:25:28;3.37;;;1.60;;
22034;SDS011;11181;51.002;4.356;2023-08-07T08:27:55;6.00;;;2.00;;
22034;SDS011;11181;51.002;4.356;2023-08-07T08:30:23;4.33;;;1.60;;
22034;SDS011;11181;51.002;4.356;2023-08-07T08:32:50;2.83;;;1.83;;
22034;SDS011;11181;51.002;4.356;2023-08-07T08:35:17;2.57;;;1.63;;
22034;SDS011;11181;51.002;4.356;2023-08-07T08:37:44;3.87;;;1.80;;
22034;SDS011;11181;51.002;4.356;2023-08-07T08:40:11;4.40;;;1.70;;
22034;SDS011;11181;51.002;4.356;2023-08-07T08:42:42;3.17;;;1.80;;
22034;SDS011;11181;51.002;4.356;2023-08-07T08:45:10;4.60;;;1.40;;
22034;SDS011;11181;51.002;4.356;2023-08-07T08:47:40;2.53;;;1.63;;
22034;SDS011;11181;51.002;4.356;2023-08-07T08:50:10;2.73;;;1.10;;
22034;SDS011;11181;51.002;4.356;2023-08-07T08:52:41;3.43;;;1.70;;
22034;SDS011;11181;51.002;4.356;2023-08-07T08:55:10;2.83;;;1.43;;
22034;SDS011;11181;51.002;4.356;2023-08-07T08:57:38;2.13;;;1.50;;
22034;SDS011;11181;51.002;4.356;2023-08-07T09:00:06;4.40;;;1.30;;
22034;SDS011;11181;51.002;4.356;2023-08-07T09:02:44;2.60;;;1.57;;
22034;SDS011;11181;51.002;4.356;2023-08-07T09:05:13;1.87;;;1.10;;
22034;SDS011;11181;51.002;4.356;2023-08-07T09:07:41;3.30;;;1.43;;
22034;SDS011;11181;51.002;4.356;2023-08-07T09:10:08;1.63;;;1.30;;
22034;SDS011;11181;51.002;4.356;2023-08-07T09:12:36;3.40;;;1.40;;
22034;SDS011;11181;51.002;4.356;2023-08-07T09:15:07;3.80;;;1.30;;
22034;SDS011;11181;51.002;4.356;2023-08-07T09:17:36;2.73;;;1.50;;
22034;SDS011;11181;51.002;4.356;2023-08-07T09:20:08;3.13;;;1.33;;
22034;SDS011;11181;51.002;4.356;2023-08-07T09:22:38;3.77;;;1.37;;
22034;SDS011;11181;51.002;4.356;2023-08-07T09:25:06;5.83;;;1.80;;
22034;SDS011;11181;51.002;4.356;2023-08-07T09:27:34;1.83;;;1.20;;
22034;SDS011;11181;51.002;4.356;2023-08-07T09:30:04;3.83;;;1.83;;
22034;SDS011;11181;51.002;4.356;2023-08-07T09:32:34;1.70;;;1.20;;
22034;SDS011;11181;51.002;4.356;2023-08-07T09:35:02;4.07;;;1.50;;
22034;SDS011;11181;51.002;4.356;2023-08-07T09:37:32;1.27;;;1.07;;
22034;SDS011;11181;51.002;4.356;2023-08-07T09:40:02;4.17;;;1.37;;
22034;SDS011;11181;51.002;4.356;2023-08-07T09:42:30;5.13;;;2.23;;
22034;SDS011;11181;51.002;4.356;2023-08-07T09:44:59;2.57;;;1.70;;
22034;SDS011;11181;51.002;4.356;2023-08-07T09:47:26;2.10;;;1.43;;
22034;SDS011;11181;51.002;4.356;2023-08-07T09:49:55;2.33;;;1.40;;
22034;SDS011;11181;51.002;4.356;2023-08-07T09:52:22;2.00;;;1.37;;
22034;SDS011;11181;51.002;4.356;2023-08-07T09:54:52;3.37;;;1.20;;
22034;SDS011;11181;51.002;4.356;2023-08-07T09:57:22;3.47;;;1.20;;
22034;SDS011;11181;51.002;4.356;2023-08-07T09:59:49;1.50;;;1.20;;
22034;SDS011;11181;51.002;4.356;2023-08-07T10:02:16;4.65;;;2.53;;
22034;SDS011;11181;51.002;4.356;2023-08-07T10:04:44;2.05;;;1.33;;
22034;SDS011;11181;51.002;4.356;2023-08-07T10:07:11;2.03;;;1.17;;
22034;SDS011;11181;51.002;4.356;2023-08-07T10:09:40;3.07;;;1.27;;
22034;SDS011;11181;51.002;4.356;2023-08-07T10:12:11;1.63;;;1.13;;
22034;SDS011;11181;51.002;4.356;2023-08-07T10:14:38;3.05;;;1.60;;
22034;SDS011;11181;51.002;4.356;2023-08-07T10:17:07;2.97;;;1.20;;
22034;SDS011;11181;51.002;4.356;2023-08-07T10:19:34;3.13;;;1.10;;
22034;SDS011;11181;51.002;4.356;2023-08-07T10:22:04;3.40;;;1.50;;
22034;SDS011;11181;51.002;4.356;2023-08-07T10:24:31;2.65;;;1.27;;
22034;SDS011;11181;51.002;4.356;2023-08-07T10:27:03;1.42;;;1.30;;
22034;SDS011;11181;51.002;4.356;2023-08-07T10:29:33;1.95;;;1.48;;
22034;SDS011;11181;51.002;4.356;2023-08-07T10:32:01;1.98;;;1.20;;
22034;SDS011;11181;51.002;4.356;2023-08-07T10:34:29;1.73;;;0.85;;
22034;SDS011;11181;51.002;4.356;2023-08-07T10:36:59;2.00;;;1.30;;
22034;SDS011;11181;51.002;4.356;2023-08-07T10:39:26;2.00;;;1.03;;
22034;SDS011;11181;51.002;4.356;2023-08-07T10:41:53;1.55;;;1.00;;
22034;SDS011;11181;51.002;4.356;2023-08-07T10:44:21;1.90;;;1.20;;
22034;SDS011;11181;51.002;4.356;2023-08-07T10:46:51;2.92;;;1.20;;
22034;SDS011;11181;51.002;4.356;2023-08-07T10:49:31;2.55;;;1.00;;
22034;SDS011;11181;51.002;4.356;2023-08-07T10:52:02;3.33;;;1.52;;
22034;SDS011;11181;51.002;4.356;2023-08-07T10:54:29;2.45;;;1.00;;
22034;SDS011;11181;51.002;4.356;2023-08-07T10:56:56;3.75;;;1.70;;
22034;SDS011;11181;51.002;4.356;2023-08-07T10:59:27;1.55;;;1.30;;
22034;SDS011;11181;51.002;4.356;2023-08-07T11:01:57;2.10;;;1.10;;
22034;SDS011;11181;51.002;4.356;2023-08-07T11:04:25;2.13;;;1.30;;
22034;SDS011;11181;51.002;4.356;2023-08-07T11:06:52;1.77;;;1.20;;
22034;SDS011;11181;51.002;4.356;2023-08-07T11:09:20;3.50;;;1.30;;
22034;SDS011;11181;51.002;4.356;2023-08-07T11:11:47;2.08;;;1.20;;
22034;SDS011;11181;51.002;4.356;2023-08-07T11:14:15;3.42;;;1.20;;
22034;SDS011;11181;51.002;4.356;2023-08-07T11:16:44;1.92;;;1.38;;
22034;SDS011;11181;51.002;4.356;2023-08-07T11:19:14;3.15;;;1.13;;
22034;SDS011;11181;51.002;4.356;2023-08-07T11:21:42;2.15;;;0.93;;
22034;SDS011;11181;51.002;4.356;2023-08-07T11:24:11;1.27;;;1.17;;
22034;SDS011;11181;51.002;4.356;2023-08-07T11:26:39;1.38;;;1.17;;
22034;SDS011;11181;51.002;4.356;2023-08-07T11:29:08;1.75;;;1.02;;
22034;SDS011;11181;51.002;4.356;2023-08-07T11:31:35;3.60;;;1.20;;
22034;SDS011;11181;51.002;4.356;2023-08-07T11:34:02;1.55;;;1.25;;
22034;SDS011;11181;51.002;4.356;2023-08-07T11:36:30;3.45;;;0.98;;
22034;SDS011;11181;51.002;4.356;2023-08-07T11:38:58;3.58;;;1.33;;
22034;SDS011;11181;51.002;4.356;2023-08-07T11:41:26;1.92;;;1.15;;
22034;SDS011;11181;51.002;4.356;2023-08-07T11:43:53;2.53;;;1.40;;
22034;SDS011;11181;51.002;4.356;2023-08-07T11:46:20;2.00;;;1.17;;
22034;SDS011;11181;51.002;4.356;2023-08-07T11:48:47;2.15;;;1.20;;
22034;SDS011;11181;51.002;4.356;2023-08-07T11:51:14;1.58;;;1.17;;
22034;SDS011;11181;51.002;4.356;2023-08-07T11:53:43;2.17;;;1.13;;
22034;SDS011;11181;51.002;4.356;2023-08-07T11:56:11;4.20;;;1.50;;
22034;SDS011;11181;51.002;4.356;2023-08-07T11:58:40;2.55;;;1.17;;
22034;SDS011;11181;51.002;4.356;2023-08-07T12:01:11;2.30;;;1.10;;
22034;SDS011;11181;51.002;4.356;2023-08-07T12:03:41;2.90;;;1.38;;
22034;SDS011;11181;51.002;4.356;2023-08-07T12:06:09;2.83;;;1.50;;
22034;SDS011;11181;51.002;4.356;2023-08-07T12:08:37;1.63;;;1.15;;
22034;SDS011;11181;51.002;4.356;2023-08-07T12:11:06;3.38;;;1.38;;
22034;SDS011;11181;51.002;4.356;2023-08-07T12:13:36;2.15;;;1.30;;
22034;SDS011;11181;51.002;4.356;2023-08-07T12:16:03;3.75;;;1.30;;
22034;SDS011;11181;51.002;4.356;2023-08-07T12:18:31;3.83;;;0.93;;
22034;SDS011;11181;51.002;4.356;2023-08-07T12:20:59;1.83;;;1.08;;
22034;SDS011;11181;51.002;4.356;2023-08-07T12:23:26;2.47;;;1.45;;
22034;SDS011;11181;51.002;4.356;2023-08-07T12:25:53;2.70;;;1.33;;
22034;SDS011;11181;51.002;4.356;2023-08-07T12:28:22;1.27;;;1.17;;
22034;SDS011;11181;51.002;4.356;2023-08-07T12:30:49;2.72;;;1.00;;
22034;SDS011;11181;51.002;4.356;2023-08-07T12:33:17;3.13;;;1.30;;
22034;SDS011;11181;51.002;4.356;2023-08-07T12:35:45;2.33;;;0.93;;
22034;SDS011;11181;51.002;4.356;2023-08-07T12:38:12;1.15;;;1.00;;
22034;SDS011;11181;51.002;4.356;2023-08-07T12:40:40;1.38;;;1.17;;
22034;SDS011;11181;51.002;4.356;2023-08-07T12:43:07;1.80;;;0.90;;
22034;SDS011;11181;51.002;4.356;2023-08-07T12:45:35;1.77;;;1.08;;
22034;SDS011;11181;51.002;4.356;2023-08-07T12:48:02;2.30;;;1.30;;
22034;SDS011;11181;51.002;4.356;2023-08-07T12:50:30;2.55;;;1.30;;
22034;SDS011;11181;51.002;4.356;2023-08-07T12:52:57;0.90;;;0.90;;
22034;SDS011;11181;51.002;4.356;2023-08-07T12:55:24;3.47;;;0.90;;
22034;SDS011;11181;51.002;4.356;2023-08-07T12:57:51;1.63;;;1.20;;
22034;SDS011;11181;51.002;4.356;2023-08-07T13:00:19;1.45;;;1.27;;
22034;SDS011;11181;51.002;4.356;2023-08-07T13:02:48;4.07;;;2.05;;
22034;SDS011;11181;51.002;4.356;2023-08-07T13:05:16;1.70;;;0.95;;
22034;SDS011;11181;51.002;4.356;2023-08-07T13:07:44;3.00;;;0.95;;
22034;SDS011;11181;51.002;4.356;2023-08-07T13:10:12;1.60;;;1.02;;
22034;SDS011;11181;51.002;4.356;2023-08-07T13:12:42;1.10;;;0.98;;
22034;SDS011;11181;51.002;4.356;2023-08-07T13:15:11;0.50;;;0.50;;
22034;SDS011;11181;51.002;4.356;2023-08-07T13:17:39;1.15;;;0.80;;
22034;SDS011;11181;51.002;4.356;2023-08-07T13:20:08;0.73;;;0.60;;
22034;SDS011;11181;51.002;4.356;2023-08-07T13:22:38;1.08;;;0.85;;
22034;SDS011;11181;51.002;4.356;2023-08-07T13:25:06;1.08;;;0.80;;
22034;SDS011;11181;51.002;4.356;2023-08-07T13:27:34;1.55;;;1.10;;
22034;SDS011;11181;51.002;4.356;2023-08-07T13:30:02;1.00;;;0.90;;
22034;SDS011;11181;51.002;4.356;2023-08-07T13:32:29;2.47;;;1.15;;
22034;SDS011;11181;51.002;4.356;2023-08-07T13:34:57;3.28;;;1.60;;
22034;SDS011;11181;51.002;4.356;2023-08-07T13:37:25;1.35;;;0.70;;
22034;SDS011;11181;51.002;4.356;2023-08-07T13:39:52;1.10;;;0.80;;
22034;SDS011;11181;51.002;4.356;2023-08-07T13:42:19;0.80;;;0.50;;
22034;SDS011;11181;51.002;4.356;2023-08-07T13:44:46;1.17;;;0.70;;
22034;SDS011;11181;51.002;4.356;2023-08-07T13:47:13;2.85;;;0.70;;
22034;SDS011;11181;51.002;4.356;2023-08-07T13:49:42;0.60;;;0.60;;
22034;SDS011;11181;51.002;4.356;2023-08-07T13:52:09;1.55;;;0.70;;
22034;SDS011;11181;51.002;4.356;2023-08-07T13:54:38;1.10;;;0.70;;
22034;SDS011;11181;51.002;4.356;2023-08-07T13:57:05;1.45;;;0.60;;
22034;SDS011;11181;51.002;4.356;2023-08-07T13:59:32;1.85;;;0.80;;
22034;SDS011;11181;51.002;4.356;2023-08-07T14:01:59;3.85;;;0.90;;
22034;SDS011;11181;51.002;4.356;2023-08-07T14:04:26;1.23;;;0.77;;
22034;SDS011;11181;51.002;4.356;2023-08-07T14:06:52;1.20;;;0.70;;
22034;SDS011;11181;51.002;4.356;2023-08-07T14:09:19;1.42;;;0.80;;
22034;SDS011;11181;51.002;4.356;2023-08-07T14:11:49;1.05;;;0.60;;
22034;SDS011;11181;51.002;4.356;2023-08-07T14:14:16;1.15;;;0.82;;
22034;SDS011;11181;51.002;4.356;2023-08-07T14:16:43;1.85;;;0.75;;
22034;SDS011;11181;51.002;4.356;2023-08-07T14:19:10;2.70;;;0.60;;
22034;SDS011;11181;51.002;4.356;2023-08-07T14:21:37;2.22;;;0.60;;
22034;SDS011;11181;51.002;4.356;2023-08-07T14:24:04;1.92;;;1.02;;
22034;SDS011;11181;51.002;4.356;2023-08-07T14:26:32;1.33;;;0.80;;
22034;SDS011;11181;51.002;4.356;2023-08-07T14:29:00;0.60;;;0.60;;
22034;SDS011;11181;51.002;4.356;2023-08-07T14:31:27;2.40;;;0.75;;
22034;SDS011;11181;51.002;4.356;2023-08-07T14:33:54;0.77;;;0.50;;
22034;SDS011;11181;51.002;4.356;2023-08-07T14:36:21;1.80;;;0.52;;
22034;SDS011;11181;51.002;4.356;2023-08-07T14:38:48;1.98;;;0.50;;
22034;SDS011;11181;51.002;4.356;2023-08-07T14:41:15;2.13;;;0.75;;
22034;SDS011;11181;51.002;4.356;2023-08-07T14:43:43;1.10;;;0.70;;
22034;SDS011;11181;51.002;4.356;2023-08-07T14:46:12;1.73;;;0.88;;
22034;SDS011;11181;51.002;4.356;2023-08-07T14:48:39;2.10;;;0.50;;
22034;SDS011;11181;51.002;4.356;2023-08-07T14:51:05;2.85;;;0.82;;